createdAt,value
2023-02-04T00:00:11.300Z,97157.63
2023-02-04T00:01:15.839Z,97149.94
2023-02-04T00:02:17.751Z,97155.03
2023-02-04T00:03:22.285Z,97149.06
2023-02-04T00:04:24.200Z,97154.22
2023-02-04T00:05:28.839Z,97154.22
2023-02-04T00:06:30.936Z,97154.22
2023-02-04T00:07:35.450Z,97155.06
2023-02-04T00:08:37.799Z,97151.66
2023-02-04T00:09:42.349Z,97155.97
2023-02-04T00:10:44.315Z,97149.97
2023-02-04T00:11:48.919Z,97149.09
2023-02-04T00:12:50.882Z,97147.44
2023-02-04T00:13:58.043Z,97139.66
2023-02-04T00:15:00.270Z,97144.03
2023-02-04T00:16:04.984Z,97141.41
2023-02-04T00:17:08.157Z,97150.03
2023-02-04T00:18:13.679Z,97156.00
2023-02-04T00:19:17.155Z,97147.41
2023-02-04T00:20:22.359Z,97157.69
2023-02-04T00:21:24.352Z,97160.25
2023-02-04T00:22:29.438Z,97155.13
2023-02-04T00:23:31.452Z,97160.25
2023-02-04T00:24:36.210Z,97156.00
2023-02-04T00:25:38.136Z,97161.09
2023-02-04T00:26:42.652Z,97159.38
2023-02-04T00:27:44.642Z,97155.97
2023-02-04T00:28:49.171Z,97175.69
2023-02-04T00:29:53.755Z,97164.53
2023-02-04T00:30:58.272Z,97166.25
2023-02-04T00:32:00.452Z,97170.50
2023-02-04T00:33:05.114Z,97163.63
2023-02-04T00:34:07.053Z,97160.16
2023-02-04T00:35:12.060Z,97179.91
2023-02-04T00:36:14.130Z,97168.78
2023-02-04T00:37:18.711Z,97172.25
2023-02-04T00:38:20.668Z,97171.41
2023-02-04T00:39:25.275Z,97164.56
2023-02-04T00:40:27.223Z,97174.00
2023-02-04T00:41:31.764Z,97163.72
2023-02-04T00:42:33.759Z,97180.00
2023-02-04T00:43:38.349Z,97172.28
2023-02-04T00:44:40.324Z,97173.16
2023-02-04T00:45:47.889Z,97171.50
2023-02-04T00:46:49.885Z,97173.16
2023-02-04T00:47:54.547Z,97173.22
2023-02-04T00:48:56.457Z,97169.72
2023-02-04T00:50:00.983Z,97173.22
2023-02-04T00:51:02.960Z,97167.25
2023-02-04T00:52:08.037Z,97170.66
2023-02-04T00:53:10.180Z,97172.34
2023-02-04T00:54:16.106Z,97195.50
2023-02-04T00:55:18.630Z,97177.44
2023-02-04T00:56:23.144Z,97177.44
2023-02-04T00:57:25.186Z,97181.78
2023-02-04T00:58:29.793Z,97179.16
2023-02-04T00:59:31.699Z,97182.69
2023-02-04T01:00:36.220Z,97184.41
2023-02-04T01:01:40.768Z,97187.78
2023-02-04T01:02:45.384Z,97184.34
2023-02-04T01:03:47.354Z,97190.34
2023-02-04T01:04:51.897Z,97170.66
2023-02-04T01:05:53.804Z,97181.78
2023-02-04T01:06:58.432Z,97181.00
2023-02-04T01:08:00.379Z,97189.56
2023-02-04T01:09:05.238Z,97187.81
2023-02-04T01:10:07.329Z,97180.06
2023-02-04T01:11:11.867Z,97198.94
2023-02-04T01:12:13.802Z,97182.69
2023-02-04T01:13:18.543Z,97174.13
2023-02-04T01:14:20.881Z,97174.13
2023-02-04T01:15:25.510Z,97180.09
2023-02-04T01:16:27.685Z,97182.72
2023-02-04T01:17:34.876Z,97179.25
2023-02-04T01:18:36.846Z,97198.16
2023-02-04T01:19:41.344Z,97195.63
2023-02-04T01:20:43.306Z,97206.75
2023-02-04T01:21:47.938Z,97201.63
2023-02-04T01:22:49.921Z,97199.03
2023-02-04T01:23:55.200Z,97215.34
2023-02-04T01:24:57.133Z,97223.06
2023-02-04T01:26:01.682Z,97209.34
2023-02-04T01:27:03.709Z,97215.28
2023-02-04T01:28:08.217Z,97216.16
2023-02-04T01:29:10.581Z,97227.31
2023-02-04T01:30:17.266Z,97222.16
2023-02-04T01:31:19.433Z,97220.41
2023-02-04T01:32:24.028Z,97227.34
2023-02-04T01:33:28.583Z,97227.34
2023-02-04T01:34:33.293Z,97229.13
2023-02-04T01:35:35.282Z,97219.69
2023-02-04T01:36:39.799Z,97226.50
2023-02-04T01:37:41.716Z,97211.06
2023-02-04T01:38:46.185Z,97203.34
2023-02-04T01:39:48.125Z,97208.50
2023-02-04T01:40:52.734Z,97206.81
2023-02-04T01:41:54.890Z,97225.75
2023-02-04T01:42:59.814Z,97210.34
2023-02-04T01:44:01.957Z,97221.53
2023-02-04T01:45:08.214Z,97219.84
2023-02-04T01:46:10.476Z,97217.31
2023-02-04T01:47:15.481Z,97216.44
2023-02-04T01:48:20.602Z,97213.06
2023-02-04T01:49:28.126Z,97223.34
2023-02-04T01:50:30.981Z,97227.59
2023-02-04T01:51:35.812Z,97229.38
2023-02-04T01:52:40.027Z,97232.84
2023-02-04T01:53:45.021Z,97225.97
2023-02-04T01:54:47.440Z,97235.41
2023-02-04T01:55:52.063Z,97246.53
2023-02-04T01:56:55.609Z,97234.56
2023-02-04T01:58:01.944Z,97233.69
2023-02-04T01:59:12.471Z,97253.41
2023-02-04T02:00:20.860Z,97239.72
2023-02-04T02:01:37.837Z,97250.00
2023-02-04T02:02:44.752Z,97251.69
2023-02-04T02:03:49.275Z,97246.63
2023-02-04T02:04:54.080Z,97249.16
2023-02-04T02:05:58.915Z,97252.59
2023-02-04T02:07:04.048Z,97256.94
2023-02-04T02:08:10.644Z,97250.91
2023-02-04T02:09:12.880Z,97253.53
2023-02-04T02:10:18.712Z,97260.38
2023-02-04T02:11:20.932Z,97253.56
2023-02-04T02:12:25.750Z,97262.16
2023-02-04T02:13:30.378Z,97251.84
2023-02-04T02:14:32.683Z,97263.84
2023-02-04T02:15:37.537Z,97260.44
2023-02-04T02:16:39.648Z,97260.44
2023-02-04T02:17:44.387Z,97265.56
2023-02-04T02:18:46.490Z,97250.09
2023-02-04T02:19:51.267Z,97261.22
2023-02-04T02:20:57.930Z,97250.91
2023-02-04T02:22:13.875Z,97252.59
2023-02-04T02:23:23.648Z,97250.94
2023-02-04T02:24:32.818Z,97261.25
2023-02-04T02:25:34.927Z,97253.53
2023-02-04T02:26:39.550Z,97251.84
2023-02-04T02:27:41.934Z,97252.72
2023-02-04T02:28:48.074Z,97246.66
2023-02-04T02:29:50.930Z,97250.16
2023-02-04T02:30:55.848Z,97239.00
2023-02-04T02:31:59.083Z,97246.75
2023-02-04T02:33:03.758Z,97243.31
2023-02-04T02:34:05.864Z,97240.78
2023-02-04T02:35:11.545Z,97251.91
2023-02-04T02:36:14.776Z,97250.19
2023-02-04T02:37:19.326Z,97246.75
2023-02-04T02:38:21.389Z,97251.06
2023-02-04T02:39:25.993Z,97255.34
2023-02-04T02:40:33.382Z,97259.63
2023-02-04T02:41:35.486Z,97263.03
2023-02-04T02:42:40.598Z,97263.03
2023-02-04T02:43:42.552Z,97268.94
2023-02-04T02:44:48.318Z,97273.25
2023-02-04T02:45:50.904Z,97269.88
2023-02-04T02:46:56.682Z,97274.97
2023-02-04T02:48:00.987Z,97275.81
2023-02-04T02:49:05.509Z,97280.06
2023-02-04T02:50:12.599Z,97271.56
2023-02-04T02:51:17.188Z,97275.81
2023-02-04T02:52:19.895Z,97274.94
2023-02-04T02:53:24.967Z,97278.31
2023-02-04T02:54:29.562Z,97283.50
2023-02-04T02:55:36.719Z,97284.38
2023-02-04T02:56:38.661Z,97281.81
2023-02-04T02:57:43.185Z,97285.16
2023-02-04T02:58:45.368Z,97292.06
2023-02-04T02:59:50.597Z,97296.34
2023-02-04T03:00:53.268Z,97297.22
2023-02-04T03:02:02.051Z,97295.53
2023-02-04T03:03:08.822Z,97299.84
2023-02-04T03:04:14.667Z,97302.41
2023-02-04T03:05:16.879Z,97288.66
2023-02-04T03:06:26.243Z,97298.13
2023-02-04T03:07:28.328Z,97298.03
2023-02-04T03:08:32.957Z,97300.53
2023-02-04T03:09:36.245Z,97299.81
2023-02-04T03:10:44.277Z,97304.88
2023-02-04T03:11:46.294Z,97297.16
2023-02-04T03:12:51.120Z,97304.03
2023-02-04T03:13:53.539Z,97314.31
2023-02-04T03:14:58.195Z,97308.25
2023-02-04T03:16:01.101Z,97311.75
2023-02-04T03:17:07.279Z,97310.94
2023-02-04T03:18:09.766Z,97312.63
2023-02-04T03:19:15.269Z,97313.50
2023-02-04T03:20:17.619Z,97312.66
2023-02-04T03:21:22.144Z,97311.84
2023-02-04T03:22:24.430Z,97319.50
2023-02-04T03:23:29.381Z,97322.91
2023-02-04T03:24:32.367Z,97325.50
2023-02-04T03:25:37.170Z,97328.94
2023-02-04T03:26:41.708Z,97326.38
2023-02-04T03:27:46.818Z,97325.47
2023-02-04T03:28:49.438Z,97334.94
2023-02-04T03:29:55.200Z,97322.94
2023-02-04T03:30:57.638Z,97336.72
2023-02-04T03:32:03.278Z,97335.03
2023-02-04T03:33:05.345Z,97344.50
2023-02-04T03:34:10.204Z,97346.22
2023-02-04T03:35:12.218Z,97347.16
2023-02-04T03:36:16.730Z,97340.25
2023-02-04T03:37:18.703Z,97340.31
2023-02-04T03:38:23.620Z,97345.50
2023-02-04T03:39:28.137Z,97350.63
2023-02-04T03:40:30.530Z,97349.78
2023-02-04T03:41:35.189Z,97351.53
2023-02-04T03:42:39.751Z,97355.81
2023-02-04T03:43:44.240Z,97348.94
2023-02-04T03:44:46.157Z,97355.75
2023-02-04T03:45:50.671Z,97353.16
2023-02-04T03:46:55.400Z,97355.75
2023-02-04T03:47:59.926Z,97351.50
2023-02-04T03:49:01.817Z,97354.94
2023-02-04T03:50:06.889Z,97363.50
2023-02-04T03:51:08.812Z,97360.09
2023-02-04T03:52:13.318Z,97366.09
2023-02-04T03:53:15.285Z,97354.06
2023-02-04T03:54:19.961Z,97354.94
2023-02-04T03:55:21.855Z,97360.16
2023-02-04T03:56:26.432Z,97352.41
2023-02-04T03:57:28.378Z,97362.75
2023-02-04T03:58:35.486Z,97356.72
2023-02-04T03:59:37.471Z,97356.78
2023-02-04T04:00:42.111Z,97361.91
2023-02-04T04:01:44.049Z,97356.78
2023-02-04T04:02:48.705Z,97353.38
2023-02-04T04:03:50.635Z,97353.38
2023-02-04T04:04:55.180Z,97361.09
2023-02-04T04:05:57.048Z,97356.84
2023-02-04T04:07:01.552Z,97360.28
2023-02-04T04:08:03.592Z,97359.44
2023-02-04T04:09:08.073Z,97367.97
2023-02-04T04:10:10.501Z,97358.56
2023-02-04T04:11:15.145Z,97371.41
2023-02-04T04:12:17.026Z,97368.91
2023-02-04T04:13:21.596Z,97377.44
2023-02-04T04:14:26.334Z,97368.94
2023-02-04T04:15:30.856Z,97381.78
2023-02-04T04:16:32.749Z,97386.91
2023-02-04T04:17:37.284Z,97380.94
2023-02-04T04:18:39.201Z,97383.47
2023-02-04T04:19:44.692Z,97376.66
2023-02-04T04:20:46.863Z,97376.66
2023-02-04T04:21:51.394Z,97385.25
2023-02-04T04:22:53.285Z,97391.28
2023-02-04T04:23:57.786Z,97398.97
2023-02-04T04:24:59.752Z,97396.44
2023-02-04T04:26:04.277Z,97398.97
2023-02-04T04:27:06.209Z,97394.72
2023-02-04T04:28:10.740Z,97397.28
2023-02-04T04:29:12.731Z,97397.34
2023-02-04T04:30:20.548Z,97398.22
2023-02-04T04:31:22.660Z,97399.94
2023-02-04T04:32:27.549Z,97408.47
2023-02-04T04:33:29.591Z,97403.34
2023-02-04T04:34:34.277Z,97400.84
2023-02-04T04:35:36.257Z,97398.25
2023-02-04T04:36:40.827Z,97400.81
2023-02-04T04:37:42.725Z,97407.69
2023-02-04T04:38:47.207Z,97403.44
2023-02-04T04:39:49.112Z,97407.69
2023-02-04T04:40:53.717Z,97406.84
2023-02-04T04:41:55.725Z,97402.59
2023-02-04T04:43:00.229Z,97415.41
2023-02-04T04:44:02.399Z,97412.00
2023-02-04T04:45:10.480Z,97414.53
2023-02-04T04:46:15.035Z,97417.13
2023-02-04T04:47:19.586Z,97412.03
2023-02-04T04:48:21.864Z,97412.91
2023-02-04T04:49:26.960Z,97414.59
2023-02-04T04:50:28.958Z,97410.34
2023-02-04T04:51:33.590Z,97417.22
2023-02-04T04:52:35.534Z,97418.94
2023-02-04T04:53:40.148Z,97423.22
2023-02-04T04:54:42.104Z,97429.22
2023-02-04T04:55:46.652Z,97432.63
2023-02-04T04:56:48.558Z,97433.47
2023-02-04T04:57:53.046Z,97433.50
2023-02-04T04:58:54.963Z,97441.19
2023-02-04T04:59:59.470Z,97434.31
2023-02-04T05:01:01.435Z,97437.78
2023-02-04T05:02:08.566Z,97430.09
2023-02-04T05:03:10.494Z,97426.66
2023-02-04T05:04:15.336Z,97432.63
2023-02-04T05:05:17.408Z,97430.91
2023-02-04T05:06:25.371Z,97426.63
2023-02-04T05:07:27.772Z,97424.94
2023-02-04T05:08:32.279Z,97424.97
2023-02-04T05:09:34.181Z,97424.09
2023-02-04T05:10:38.676Z,97428.34
2023-02-04T05:11:40.691Z,97425.81
2023-02-04T05:12:45.229Z,97425.81
2023-02-04T05:13:47.494Z,97434.31
2023-02-04T05:14:52.010Z,97424.09
2023-02-04T05:15:53.943Z,97432.63
2023-02-04T05:16:58.528Z,97422.38
2023-02-04T05:18:03.174Z,97425.75
2023-02-04T05:19:07.663Z,97427.50
2023-02-04T05:20:10.758Z,97425.78
2023-02-04T05:21:15.262Z,97433.50
2023-02-04T05:22:17.196Z,97424.94
2023-02-04T05:23:21.868Z,97425.81
2023-02-04T05:24:23.851Z,97425.81
2023-02-04T05:25:28.425Z,97427.50
2023-02-04T05:26:31.388Z,97433.50
2023-02-04T05:27:36.005Z,97430.06
2023-02-04T05:28:37.915Z,97435.22
2023-02-04T05:29:42.461Z,97436.06
2023-02-04T05:30:44.418Z,97429.25
2023-02-04T05:31:49.054Z,97429.25
2023-02-04T05:32:51.041Z,97434.38
2023-02-04T05:33:58.174Z,97425.81
2023-02-04T05:35:00.083Z,97436.94
2023-02-04T05:36:04.578Z,97436.09
2023-02-04T05:37:06.516Z,97446.34
2023-02-04T05:38:11.005Z,97443.78
2023-02-04T05:39:12.904Z,97443.78
2023-02-04T05:40:17.552Z,97450.59
2023-02-04T05:41:19.483Z,97444.63
2023-02-04T05:42:24.047Z,97450.63
2023-02-04T05:43:26.011Z,97446.34
2023-02-04T05:44:30.499Z,97452.31
2023-02-04T05:45:32.500Z,97450.63
2023-02-04T05:46:37.290Z,97453.16
2023-02-04T05:47:39.232Z,97454.88
2023-02-04T05:48:43.704Z,97458.31
2023-02-04T05:49:48.241Z,97455.75
2023-02-04T05:50:52.765Z,97453.19
2023-02-04T05:51:54.717Z,97449.75
2023-02-04T05:52:59.235Z,97441.25
2023-02-04T05:54:01.132Z,97439.50
2023-02-04T05:55:05.958Z,97448.06
2023-02-04T05:56:08.121Z,97452.34
2023-02-04T05:57:12.618Z,97451.47
2023-02-04T05:58:14.653Z,97447.19
2023-02-04T05:59:19.114Z,97440.38
2023-02-04T06:00:21.830Z,97463.41
2023-02-04T06:01:26.411Z,97456.59
2023-02-04T06:02:28.373Z,97453.16
2023-02-04T06:03:34.021Z,97457.47
2023-02-04T06:04:36.049Z,97456.59
2023-02-04T06:05:44.374Z,97462.56
2023-02-04T06:06:46.284Z,97462.56
2023-02-04T06:07:50.782Z,97465.97
2023-02-04T06:08:52.710Z,97467.66
2023-02-04T06:09:58.561Z,97464.28
2023-02-04T06:11:01.403Z,97471.09
2023-02-04T06:12:06.307Z,97467.66
2023-02-04T06:13:08.261Z,97475.31
2023-02-04T06:14:12.960Z,97483.84
2023-02-04T06:15:15.687Z,97487.22
2023-02-04T06:16:20.261Z,97477.84
2023-02-04T06:17:22.295Z,97487.22
2023-02-04T06:18:26.918Z,97483.78
2023-02-04T06:19:28.989Z,97478.66
2023-02-04T06:20:33.687Z,97485.44
2023-02-04T06:21:38.402Z,97498.25
2023-02-04T06:22:42.935Z,97500.78
2023-02-04T06:23:45.189Z,97503.38
2023-02-04T06:24:49.715Z,97508.47
2023-02-04T06:25:55.297Z,97511.00
2023-02-04T06:26:57.215Z,97508.41
2023-02-04T06:28:01.737Z,97506.72
2023-02-04T06:29:03.771Z,97503.31
2023-02-04T06:30:09.208Z,97502.44
2023-02-04T06:31:11.178Z,97509.22
2023-02-04T06:32:15.754Z,97519.44
2023-02-04T06:33:17.707Z,97516.00
2023-02-04T06:34:22.193Z,97519.41
2023-02-04T06:35:24.403Z,97523.63
2023-02-04T06:36:28.968Z,97521.03
2023-02-04T06:37:33.506Z,97527.84
2023-02-04T06:38:38.031Z,97524.38
2023-02-04T06:39:40.268Z,97523.53
2023-02-04T06:40:44.928Z,97531.16
2023-02-04T06:41:46.861Z,97526.00
2023-02-04T06:42:51.337Z,97526.81
2023-02-04T06:43:53.277Z,97532.75
2023-02-04T06:44:57.799Z,97531.00
2023-02-04T06:46:02.340Z,97535.19
2023-02-04T06:47:04.291Z,97530.91
2023-02-04T06:48:08.964Z,97529.16
2023-02-04T06:49:10.967Z,97528.28
2023-02-04T06:50:18.868Z,97530.78
2023-02-04T06:51:20.862Z,97536.72
2023-02-04T06:52:25.580Z,97536.66
2023-02-04T06:53:32.755Z,97546.06
2023-02-04T06:54:34.831Z,97535.00
2023-02-04T06:55:39.579Z,97541.78
2023-02-04T06:56:43.671Z,97539.25
2023-02-04T06:57:48.251Z,97532.47
2023-02-04T06:58:50.151Z,97535.03
2023-02-04T06:59:55.019Z,97539.31
2023-02-04T07:00:56.949Z,97542.72
2023-02-04T07:02:01.452Z,97552.16
2023-02-04T07:03:03.483Z,97548.78
2023-02-04T07:04:08.088Z,97551.38
2023-02-04T07:05:10.085Z,97553.13
2023-02-04T07:06:14.563Z,97548.06
2023-02-04T07:07:16.566Z,97549.81
2023-02-04T07:08:21.985Z,97550.69
2023-02-04T07:09:29.324Z,97554.94
2023-02-04T07:10:32.797Z,97560.09
2023-02-04T07:11:37.590Z,97553.31
2023-02-04T07:12:39.493Z,97555.84
2023-02-04T07:13:44.065Z,97548.19
2023-02-04T07:14:45.994Z,97549.09
2023-02-04T07:15:51.230Z,97552.56
2023-02-04T07:16:53.189Z,97554.31
2023-02-04T07:17:57.677Z,97558.63
2023-02-04T07:18:59.569Z,97561.19
2023-02-04T07:20:04.110Z,97557.81
2023-02-04T07:21:06.477Z,97553.56
2023-02-04T07:22:10.950Z,97553.59
2023-02-04T07:23:13.000Z,97550.22
2023-02-04T07:24:17.513Z,97561.31
2023-02-04T07:25:22.107Z,97559.63
2023-02-04T07:26:26.709Z,97558.84
2023-02-04T07:27:28.603Z,97571.59
2023-02-04T07:28:33.205Z,97569.91
2023-02-04T07:29:35.219Z,97564.78
2023-02-04T07:30:39.798Z,97569.97
2023-02-04T07:31:41.927Z,97567.44
2023-02-04T07:32:46.474Z,97576.81
2023-02-04T07:33:48.364Z,97578.56
2023-02-04T07:34:52.941Z,97578.53
2023-02-04T07:35:54.901Z,97581.97
2023-02-04T07:36:59.433Z,97587.97
2023-02-04T07:38:01.370Z,97596.50
2023-02-04T07:39:06.094Z,97593.09
2023-02-04T07:40:12.274Z,97600.81
2023-02-04T07:41:16.883Z,97610.22
2023-02-04T07:42:21.475Z,97600.81
2023-02-04T07:43:23.505Z,97603.34
2023-02-04T07:44:28.025Z,97603.34
2023-02-04T07:45:29.929Z,97603.38
2023-02-04T07:46:34.571Z,97603.38
2023-02-04T07:47:36.519Z,97608.50
2023-02-04T07:48:41.103Z,97611.91
2023-02-04T07:49:45.602Z,97611.91
2023-02-04T07:50:47.695Z,97617.88
2023-02-04T07:51:52.174Z,97623.00
2023-02-04T07:52:54.071Z,97621.31
2023-02-04T07:53:59.018Z,97628.16
2023-02-04T07:55:01.029Z,97626.50
2023-02-04T07:56:05.702Z,97632.50
2023-02-04T07:57:10.272Z,97629.06
2023-02-04T07:58:14.760Z,97629.91
2023-02-04T07:59:16.667Z,97629.06
2023-02-04T08:00:21.708Z,97633.38
2023-02-04T08:01:23.630Z,97626.56
2023-02-04T08:02:28.382Z,97630.84
2023-02-04T08:03:30.308Z,97626.59
2023-02-04T08:04:34.827Z,97624.03
2023-02-04T08:05:36.789Z,97621.47
2023-02-04T08:06:41.302Z,97619.75
2023-02-04T08:07:43.217Z,97622.34
2023-02-04T08:08:47.761Z,97620.59
2023-02-04T08:09:49.668Z,97622.34
2023-02-04T08:10:54.328Z,97624.06
2023-02-04T08:11:56.257Z,97634.31
2023-02-04T08:13:03.556Z,97631.75
2023-02-04T08:14:05.486Z,97632.63
2023-02-04T08:15:10.960Z,97631.75
2023-02-04T08:16:13.048Z,97633.47
2023-02-04T08:17:17.607Z,97628.34
2023-02-04T08:18:19.697Z,97635.19
2023-02-04T08:19:24.171Z,97632.63
2023-02-04T08:20:26.084Z,97624.09
2023-02-04T08:21:30.654Z,97626.66
2023-02-04T08:22:32.630Z,97624.09
2023-02-04T08:23:41.695Z,97625.81
2023-02-04T08:24:43.707Z,97633.50
2023-02-04T08:25:48.268Z,97636.94
2023-02-04T08:26:56.410Z,97635.22
2023-02-04T08:28:03.667Z,97636.09
2023-02-04T08:29:05.597Z,97648.94
2023-02-04T08:30:11.351Z,97647.22
2023-02-04T08:31:13.435Z,97654.06
2023-02-04T08:32:18.036Z,97660.06
2023-02-04T08:33:20.064Z,97664.34
2023-02-04T08:34:24.775Z,97657.47
2023-02-04T08:35:26.844Z,97664.34
2023-02-04T08:36:31.414Z,97663.47
2023-02-04T08:37:33.503Z,97660.91
2023-02-04T08:38:38.130Z,97662.63
2023-02-04T08:39:44.461Z,97661.75
2023-02-04T08:40:49.016Z,97661.78
2023-02-04T08:41:51.500Z,97666.88
2023-02-04T08:42:56.072Z,97666.88
2023-02-04T08:44:00.726Z,97659.22
2023-02-04T08:45:05.432Z,97652.38
2023-02-04T08:46:07.584Z,97668.63
2023-02-04T08:47:12.619Z,97661.78
2023-02-04T08:48:14.572Z,97654.94
2023-02-04T08:49:19.118Z,97653.22
2023-02-04T08:50:21.113Z,97660.91
2023-02-04T08:51:25.870Z,97666.06
2023-02-04T08:52:27.844Z,97658.34
2023-02-04T08:53:32.408Z,97666.03
2023-02-04T08:54:35.517Z,97666.03
2023-02-04T08:55:40.109Z,97668.59
2023-02-04T08:56:42.127Z,97666.06
2023-02-04T08:57:46.646Z,97669.44
2023-02-04T08:58:48.637Z,97673.72
2023-02-04T08:59:55.751Z,97673.69
2023-02-04T09:00:57.782Z,97677.09
2023-02-04T09:02:03.237Z,97668.53
2023-02-04T09:03:05.263Z,97671.09
2023-02-04T09:04:09.760Z,97671.91
2023-02-04T09:05:11.850Z,97677.91
2023-02-04T09:06:16.518Z,97677.06
2023-02-04T09:07:18.563Z,97678.78
2023-02-04T09:08:23.148Z,97686.47
2023-02-04T09:09:26.389Z,97685.59
2023-02-04T09:10:31.409Z,97689.88
2023-02-04T09:11:33.588Z,97680.44
2023-02-04T09:12:38.136Z,97685.59
2023-02-04T09:13:42.698Z,97685.63
2023-02-04T09:14:44.668Z,97683.88
2023-02-04T09:15:54.284Z,97683.91
2023-02-04T09:16:58.957Z,97683.06
2023-02-04T09:18:11.610Z,97685.59
2023-02-04T09:19:16.400Z,97687.31
2023-02-04T09:20:21.541Z,97692.50
2023-02-04T09:21:23.479Z,97692.50
2023-02-04T09:22:28.067Z,97693.38
2023-02-04T09:23:32.940Z,97695.06
2023-02-04T09:24:37.513Z,97701.06
2023-02-04T09:25:39.742Z,97699.34
2023-02-04T09:26:44.253Z,97701.06
2023-02-04T09:27:46.243Z,97705.34
2023-02-04T09:28:50.995Z,97707.06
2023-02-04T09:29:52.944Z,97707.94
2023-02-04T09:31:00.487Z,97703.66
2023-02-04T09:32:02.528Z,97702.78
2023-02-04T09:33:07.667Z,97707.94
2023-02-04T09:34:12.163Z,97709.63
2023-02-04T09:35:14.280Z,97713.06
2023-02-04T09:36:18.921Z,97713.94
2023-02-04T09:37:20.882Z,97706.25
2023-02-04T09:38:25.408Z,97721.66
2023-02-04T09:39:31.394Z,97714.78
2023-02-04T09:40:36.139Z,97719.91
2023-02-04T09:41:43.016Z,97719.03
2023-02-04T09:42:47.054Z,97725.91
2023-02-04T09:43:51.937Z,97724.22
2023-02-04T09:44:54.104Z,97725.94
2023-02-04T09:46:02.001Z,97726.81
2023-02-04T09:47:04.049Z,97728.50
2023-02-04T09:48:10.372Z,97724.22
2023-02-04T09:49:12.391Z,97718.22
2023-02-04T09:50:18.431Z,97725.06
2023-02-04T09:51:26.435Z,97725.09
2023-02-04T09:52:31.947Z,97731.94
2023-02-04T09:53:35.930Z,97726.81
2023-02-04T09:54:40.810Z,97737.91
2023-02-04T09:55:45.506Z,97736.19
2023-02-04T09:56:50.602Z,97743.06
2023-02-04T09:57:52.544Z,97738.75
2023-02-04T09:58:57.232Z,97743.91
2023-02-04T09:59:59.457Z,97743.03
2023-02-04T10:01:15.163Z,97731.88
2023-02-04T10:02:25.344Z,97741.31
2023-02-04T10:03:29.464Z,97746.41
2023-02-04T10:04:34.190Z,97743.00
2023-02-04T10:05:37.357Z,97747.28
2023-02-04T10:06:42.760Z,97748.19
2023-02-04T10:07:45.429Z,97750.75
2023-02-04T10:08:51.780Z,97742.16
2023-02-04T10:09:54.970Z,97751.59
2023-02-04T10:10:59.819Z,97749.88
2023-02-04T10:12:04.333Z,97746.47
2023-02-04T10:13:08.530Z,97746.47
2023-02-04T10:14:17.651Z,97749.88
2023-02-04T10:15:22.111Z,97745.63
2023-02-04T10:16:32.708Z,97747.31
2023-02-04T10:17:36.833Z,97740.47
2023-02-04T10:18:41.895Z,97743.03
2023-02-04T10:19:43.890Z,97740.44
2023-02-04T10:20:48.468Z,97749.03
2023-02-04T10:21:53.178Z,97744.72
2023-02-04T10:22:56.382Z,97743.88
2023-02-04T10:24:03.529Z,97743.00
2023-02-04T10:25:12.580Z,97748.13
2023-02-04T10:26:18.044Z,97745.56
2023-02-04T10:27:23.341Z,97745.56
2023-02-04T10:28:33.607Z,97749.84
2023-02-04T10:29:38.364Z,97747.28
2023-02-04T10:30:42.345Z,97745.56
2023-02-04T10:31:52.288Z,97752.44
2023-02-04T10:32:57.506Z,97740.44
2023-02-04T10:34:13.101Z,97737.03
2023-02-04T10:35:19.694Z,97738.75
2023-02-04T10:36:22.312Z,97742.16
2023-02-04T10:37:26.810Z,97737.00
2023-02-04T10:38:28.750Z,97735.31
2023-02-04T10:39:33.347Z,97733.59
2023-02-04T10:40:36.672Z,97737.00
2023-02-04T10:41:41.551Z,97742.16
2023-02-04T10:42:53.256Z,97740.44
2023-02-04T10:44:06.027Z,97740.41
2023-02-04T10:45:24.958Z,97737.00
2023-02-04T10:46:30.508Z,97735.25
2023-02-04T10:47:37.645Z,97733.53
2023-02-04T10:48:41.203Z,97746.38
2023-02-04T10:49:55.251Z,97740.44
2023-02-04T10:51:00.995Z,97746.41
2023-02-04T10:52:13.822Z,97745.56
2023-02-04T10:53:34.229Z,97742.97
2023-02-04T10:54:41.635Z,97747.25
2023-02-04T10:55:44.149Z,97744.63
2023-02-04T10:56:48.820Z,97731.66
2023-02-04T10:57:52.829Z,97731.56
2023-02-04T10:58:57.334Z,97727.19
2023-02-04T11:00:01.731Z,97733.91
2023-02-04T11:01:06.717Z,97720.03
2023-02-04T11:02:35.486Z,97724.19
2023-02-04T11:03:44.596Z,97718.03
2023-02-04T11:04:48.589Z,97727.34
2023-02-04T11:05:54.114Z,97727.22
2023-02-04T11:06:56.055Z,97725.53
2023-02-04T11:08:00.724Z,97720.25
2023-02-04T11:09:04.314Z,97724.56
2023-02-04T11:10:09.163Z,97729.84
2023-02-04T11:11:19.401Z,97723.72
2023-02-04T11:12:22.501Z,97732.59
2023-02-04T11:13:28.974Z,97726.28
2023-02-04T11:14:33.852Z,97719.19
2023-02-04T11:15:42.135Z,97722.47
2023-02-04T11:16:50.725Z,97726.47
2023-02-04T11:18:03.477Z,97726.16
2023-02-04T11:19:16.579Z,97718.22
2023-02-04T11:20:31.989Z,97718.59
2023-02-04T11:21:46.370Z,97720.75
2023-02-04T11:22:53.808Z,97720.53
2023-02-04T11:24:22.697Z,97721.78
2023-02-04T11:25:35.003Z,97713.72
2023-02-04T11:26:41.384Z,97720.25
2023-02-04T11:27:43.887Z,97714.28
2023-02-04T11:28:52.134Z,97723.09
2023-02-04T11:30:08.806Z,97719.78
2023-02-04T11:31:16.871Z,97721.84
2023-02-04T11:32:35.249Z,97713.59
2023-02-04T11:33:39.733Z,97715.16
2023-02-04T11:34:53.061Z,97717.84
2023-02-04T11:36:02.004Z,97717.78
2023-02-04T11:37:15.494Z,97709.22
2023-02-04T11:38:27.042Z,97719.66
2023-02-04T11:39:35.621Z,97716.34
2023-02-04T11:40:42.999Z,97714.34
2023-02-04T11:41:46.044Z,97707.25
2023-02-04T11:42:51.410Z,97713.59
2023-02-04T11:43:54.405Z,97714.69
2023-02-04T11:45:02.419Z,97717.56
2023-02-04T11:46:13.924Z,97714.66
2023-02-04T11:47:15.708Z,97712.31
2023-02-04T11:48:22.677Z,97724.38
2023-02-04T11:49:26.853Z,97718.41
2023-02-04T11:50:38.553Z,97718.81
2023-02-04T11:51:40.550Z,97719.38
2023-02-04T11:52:45.952Z,97715.09
2023-02-04T11:53:55.841Z,97717.44
2023-02-04T11:55:00.888Z,97720.75
2023-02-04T11:56:05.945Z,97719.19
2023-02-04T11:57:11.601Z,97718.28
2023-02-04T11:58:18.350Z,97717.59
2023-02-04T11:59:21.597Z,97725.66
2023-02-04T12:00:28.514Z,97720.59
2023-02-04T12:01:31.985Z,97718.06
2023-02-04T12:02:50.716Z,97719.81
2023-02-04T12:04:00.616Z,97723.44
2023-02-04T12:05:10.678Z,97722.06
2023-02-04T12:06:26.668Z,97717.56
2023-02-04T12:07:30.281Z,97718.56
2023-02-04T12:08:36.832Z,97728.19
2023-02-04T12:09:48.292Z,97719.50
2023-02-04T12:11:01.493Z,97720.47
2023-02-04T12:12:04.156Z,97723.81
2023-02-04T12:13:19.239Z,97721.09
2023-02-04T12:14:21.495Z,97724.47
2023-02-04T12:15:27.564Z,97723.53
2023-02-04T12:16:40.263Z,97724.03
2023-02-04T12:17:48.388Z,97728.13
2023-02-04T12:18:50.793Z,97733.47
2023-02-04T12:19:55.308Z,97721.34
2023-02-04T12:21:00.555Z,97729.09
2023-02-04T12:23:26.008Z,97731.00
2023-02-04T12:24:30.518Z,97727.59
2023-02-04T12:25:32.958Z,97727.63
2023-02-04T12:26:37.638Z,97738.94
2023-02-04T12:27:39.605Z,97740.59
2023-02-04T12:28:44.229Z,97743.47
2023-02-04T12:29:46.726Z,97743.28
2023-02-04T12:30:51.531Z,97732.06
2023-02-04T12:31:53.634Z,97737.06
2023-02-04T12:32:58.220Z,97737.03
2023-02-04T12:34:00.691Z,97738.75
2023-02-04T12:35:06.112Z,97740.41
2023-02-04T12:36:11.617Z,97737.66
2023-02-04T12:37:13.610Z,97736.81
2023-02-04T12:38:20.408Z,97736.81
2023-02-04T12:39:25.055Z,97737.72